createdAt,value
2022-10-13T00:00:04.140Z,80.77
2022-10-13T00:02:35.707Z,80.93
2022-10-13T00:05:00.673Z,80.79
2022-10-13T00:07:24.221Z,80.76
2022-10-13T00:09:47.825Z,80.98
2022-10-13T00:12:11.390Z,80.78
2022-10-13T00:14:35.023Z,81.65
2022-10-13T00:16:58.559Z,80.70
2022-10-13T00:19:22.125Z,80.28
2022-10-13T00:21:47.050Z,79.97
2022-10-13T00:24:12.706Z,80.36
2022-10-13T00:26:36.265Z,80.61
2022-10-13T00:29:03.872Z,80.52
2022-10-13T00:31:30.112Z,80.92
2022-10-13T00:33:53.993Z,80.99
2022-10-13T00:36:18.715Z,81.22
2022-10-13T00:38:43.803Z,79.96
2022-10-13T00:41:08.379Z,80.72
2022-10-13T00:43:53.519Z,80.63
2022-10-13T00:46:17.322Z,80.90
2022-10-13T00:48:43.327Z,80.87
2022-10-13T00:51:07.426Z,81.26
2022-10-13T00:53:36.271Z,81.07
2022-10-13T00:56:02.089Z,80.07
2022-10-13T00:58:31.318Z,81.60
2022-10-13T01:00:55.285Z,81.53
2022-10-13T01:03:21.125Z,81.02
2022-10-13T01:05:45.011Z,80.39
2022-10-13T01:08:09.491Z,80.65
2022-10-13T01:10:47.155Z,81.29
2022-10-13T01:13:19.383Z,81.05
2022-10-13T01:15:53.059Z,81.09
2022-10-13T01:18:24.616Z,80.61
2022-10-13T01:21:10.375Z,81.30
2022-10-13T01:24:18.630Z,80.49
2022-10-13T01:27:49.626Z,81.65
2022-10-13T01:30:19.762Z,81.44
2022-10-13T01:33:18.416Z,81.91
2022-10-13T01:35:58.294Z,81.30
2022-10-13T01:38:34.611Z,81.22
2022-10-13T01:41:10.671Z,80.83
2022-10-13T01:43:39.586Z,80.64
2022-10-13T01:46:09.497Z,80.32
2022-10-13T01:48:34.292Z,80.75
2022-10-13T01:51:00.207Z,81.33
2022-10-13T01:53:24.492Z,81.17
2022-10-13T01:55:55.455Z,81.18
2022-10-13T01:58:19.094Z,81.69
2022-10-13T02:00:51.250Z,82.27
2022-10-13T02:03:25.141Z,81.59
2022-10-13T02:05:55.183Z,81.65
2022-10-13T02:08:26.963Z,82.10
2022-10-13T02:11:00.486Z,81.40
2022-10-13T02:13:29.063Z,82.87
2022-10-13T02:15:56.720Z,81.17
2022-10-13T02:18:25.264Z,81.41
2022-10-13T02:20:49.671Z,81.55
2022-10-13T02:23:17.071Z,81.52
2022-10-13T02:25:41.963Z,80.85
2022-10-13T02:28:06.787Z,81.03
2022-10-13T02:30:42.175Z,81.20
2022-10-13T02:33:05.743Z,80.95
2022-10-13T02:35:32.858Z,82.73
2022-10-13T02:37:57.487Z,82.78
2022-10-13T02:40:21.060Z,81.43
2022-10-13T02:42:44.679Z,82.38
2022-10-13T02:45:10.398Z,82.01
2022-10-13T02:47:33.983Z,82.19
2022-10-13T02:50:00.601Z,80.91
2022-10-13T02:52:25.730Z,82.48
2022-10-13T02:54:49.271Z,80.67
2022-10-13T02:57:12.878Z,82.07
2022-10-13T02:59:40.235Z,82.13
2022-10-13T03:02:03.852Z,82.59
2022-10-13T03:04:28.472Z,81.75
2022-10-13T03:06:55.979Z,81.57
2022-10-13T03:09:20.916Z,82.33
2022-10-13T03:11:44.569Z,81.76
2022-10-13T03:14:08.110Z,81.79
2022-10-13T03:16:31.709Z,82.09
2022-10-13T03:18:55.311Z,81.90
2022-10-13T03:21:18.898Z,83.39
2022-10-13T03:23:42.532Z,81.86
2022-10-13T03:26:07.691Z,81.22
2022-10-13T03:28:31.475Z,82.25
2022-10-13T03:31:02.502Z,82.79
2022-10-13T03:33:26.172Z,81.95
2022-10-13T03:35:53.355Z,82.48
2022-10-13T03:38:16.940Z,82.66
2022-10-13T03:40:40.491Z,82.47
2022-10-13T03:43:05.504Z,81.71
2022-10-13T03:45:31.361Z,82.40
2022-10-13T03:47:54.928Z,81.84
2022-10-13T03:50:19.257Z,82.66
2022-10-13T03:52:42.831Z,84.10
2022-10-13T03:55:07.584Z,84.33
2022-10-13T03:57:31.443Z,84.59
2022-10-13T03:59:57.620Z,84.02
2022-10-13T04:02:23.602Z,84.87
2022-10-13T04:04:48.595Z,84.20
2022-10-13T04:07:12.474Z,85.54
2022-10-13T04:09:36.143Z,86.38
2022-10-13T04:11:59.753Z,85.39
2022-10-13T04:14:23.647Z,85.21
2022-10-13T04:16:48.999Z,84.43
2022-10-13T04:19:14.803Z,84.55
2022-10-13T04:21:38.503Z,85.83
2022-10-13T04:24:03.138Z,85.44
2022-10-13T04:26:29.415Z,85.41
2022-10-13T04:28:56.831Z,85.79
2022-10-13T04:31:22.100Z,85.44
2022-10-13T04:33:47.198Z,85.85
2022-10-13T04:36:13.403Z,85.53
2022-10-13T04:38:36.998Z,85.87
2022-10-13T04:41:00.699Z,84.66
2022-10-13T04:43:24.923Z,84.83
2022-10-13T04:45:49.154Z,85.17
2022-10-13T04:48:12.681Z,84.22
2022-10-13T04:50:37.728Z,85.40
2022-10-13T04:53:01.373Z,85.02
2022-10-13T04:55:24.988Z,87.40
2022-10-13T04:57:48.501Z,86.55
2022-10-13T05:00:13.774Z,85.61
2022-10-13T05:02:37.739Z,84.25
2022-10-13T05:05:01.354Z,85.46
2022-10-13T05:07:26.371Z,84.90
2022-10-13T05:09:49.948Z,85.42
2022-10-13T05:12:13.639Z,85.33
2022-10-13T05:14:37.310Z,86.20
2022-10-13T05:17:04.322Z,84.68
2022-10-13T05:19:28.185Z,85.74
2022-10-13T05:21:52.734Z,85.66
2022-10-13T05:24:17.790Z,85.49
2022-10-13T05:26:44.055Z,84.88
2022-10-13T05:29:07.852Z,86.61
2022-10-13T05:31:33.715Z,85.21
2022-10-13T05:33:58.360Z,85.72
2022-10-13T05:36:25.045Z,85.10
2022-10-13T05:38:52.958Z,86.46
2022-10-13T05:41:17.939Z,86.27
2022-10-13T05:43:43.274Z,84.70
2022-10-13T05:46:08.079Z,85.29
2022-10-13T05:48:33.083Z,84.27
2022-10-13T05:50:59.254Z,84.56
2022-10-13T05:53:25.441Z,85.01
2022-10-13T05:55:49.644Z,87.30
2022-10-13T05:58:14.843Z,84.93
2022-10-13T06:00:38.487Z,85.02
2022-10-13T06:03:08.434Z,84.80
2022-10-13T06:05:33.861Z,84.94
2022-10-13T06:07:58.181Z,84.23
2022-10-13T06:10:22.101Z,84.73
2022-10-13T06:12:45.764Z,82.98
2022-10-13T06:15:12.188Z,83.32
2022-10-13T06:17:38.419Z,84.08
2022-10-13T06:20:01.943Z,84.05
2022-10-13T06:22:25.591Z,84.65
2022-10-13T06:24:49.315Z,82.69
2022-10-13T06:27:13.433Z,83.03
2022-10-13T06:29:37.198Z,85.97
2022-10-13T06:32:02.131Z,85.30
2022-10-13T06:34:25.757Z,85.43
2022-10-13T06:36:49.296Z,85.03
2022-10-13T06:39:12.879Z,84.99
2022-10-13T06:41:36.528Z,84.77
2022-10-13T06:44:00.086Z,85.04
2022-10-13T06:46:26.061Z,83.88
2022-10-13T06:48:52.795Z,84.64
2022-10-13T06:51:16.972Z,85.51
2022-10-13T06:53:41.383Z,84.39
2022-10-13T06:56:08.288Z,86.44
2022-10-13T06:58:32.042Z,87.59
2022-10-13T07:00:56.245Z,87.91
2022-10-13T07:03:19.951Z,88.47
2022-10-13T07:05:44.952Z,88.12
2022-10-13T07:08:08.484Z,87.49
2022-10-13T07:10:32.023Z,87.97
2022-10-13T07:12:55.569Z,90.16
2022-10-13T07:15:20.329Z,88.62
2022-10-13T07:17:46.292Z,89.87
2022-10-13T07:20:11.191Z,89.34
2022-10-13T07:22:36.191Z,89.01
2022-10-13T07:24:59.789Z,89.59
2022-10-13T07:27:23.961Z,90.99
2022-10-13T07:29:47.768Z,91.75
2022-10-13T07:32:11.365Z,92.60
2022-10-13T07:34:35.156Z,93.51
2022-10-13T07:36:58.762Z,92.67
2022-10-13T07:39:23.710Z,91.80
2022-10-13T07:41:50.887Z,91.52
2022-10-13T07:44:14.735Z,91.10
2022-10-13T07:46:38.329Z,90.23
2022-10-13T07:49:01.959Z,89.96
2022-10-13T07:51:26.036Z,88.97
2022-10-13T07:53:50.798Z,88.04
2022-10-13T07:56:17.486Z,86.88
2022-10-13T07:58:44.529Z,87.15
2022-10-13T08:01:09.284Z,87.99
2022-10-13T08:06:06.889Z,85.13
2022-10-13T08:08:31.276Z,84.26
2022-10-13T08:10:55.720Z,83.29
2022-10-13T08:13:21.990Z,82.20
2022-10-13T08:15:46.686Z,82.35
2022-10-13T08:18:10.909Z,81.39
2022-10-13T08:20:41.114Z,79.92
2022-10-13T08:23:05.064Z,80.74
2022-10-13T08:25:28.795Z,80.78
2022-10-13T08:27:54.720Z,78.95
2022-10-13T08:30:23.605Z,80.25
2022-10-13T08:32:47.470Z,78.72
2022-10-13T08:35:11.801Z,77.49
2022-10-13T08:37:35.336Z,77.96
2022-10-13T08:39:58.885Z,76.31
2022-10-13T08:42:23.734Z,77.72
2022-10-13T08:45:35.795Z,76.72
2022-10-13T08:47:43.586Z,76.92
2022-10-13T08:50:15.174Z,76.50
2022-10-13T08:52:54.328Z,75.69
2022-10-13T08:55:32.977Z,75.22
2022-10-13T08:57:56.648Z,73.59
2022-10-13T09:00:22.926Z,72.84
2022-10-13T09:02:48.339Z,72.82
2022-10-13T09:05:21.008Z,72.99
2022-10-13T09:07:47.654Z,72.12
2022-10-13T09:10:12.192Z,72.15
2022-10-13T09:12:35.769Z,71.23
2022-10-13T09:15:01.564Z,71.52
2022-10-13T09:17:27.430Z,70.60
2022-10-13T09:20:02.887Z,72.11
2022-10-13T09:22:28.751Z,69.81
2022-10-13T09:25:12.086Z,70.99
2022-10-13T09:27:44.848Z,71.50
2022-10-13T09:30:32.594Z,69.63
2022-10-13T09:33:25.079Z,70.66
2022-10-13T09:36:07.955Z,71.51
2022-10-13T09:38:31.579Z,70.86
2022-10-13T09:41:03.841Z,71.77
2022-10-13T09:43:33.546Z,69.96
2022-10-13T09:45:57.514Z,68.70
2022-10-13T09:48:25.931Z,70.26
2022-10-13T09:50:53.746Z,69.97
2022-10-13T09:53:32.257Z,70.51
2022-10-13T09:56:11.987Z,70.57
2022-10-13T09:58:38.130Z,70.03
2022-10-13T10:01:01.784Z,69.30
2022-10-13T10:03:29.135Z,70.12
2022-10-13T10:05:56.286Z,70.00
2022-10-13T10:08:33.854Z,68.78
2022-10-13T10:11:06.223Z,69.17
2022-10-13T10:13:29.884Z,68.77
2022-10-13T10:15:59.683Z,66.80
2022-10-13T10:18:33.461Z,69.46
2022-10-13T10:21:07.622Z,67.30
2022-10-13T10:23:44.364Z,68.73
2022-10-13T10:26:23.211Z,67.19
2022-10-13T10:29:11.954Z,67.53
2022-10-13T10:31:51.796Z,68.29
2022-10-13T10:34:36.760Z,68.71
2022-10-13T10:37:22.779Z,67.16
2022-10-13T10:39:52.387Z,67.02
2022-10-13T10:42:42.484Z,65.63
2022-10-13T10:45:18.931Z,64.71
2022-10-13T10:47:47.423Z,64.98
2022-10-13T10:50:17.617Z,66.59
2022-10-13T10:52:54.371Z,66.24
2022-10-13T10:55:25.272Z,65.42
2022-10-13T10:58:01.922Z,66.98
2022-10-13T11:03:04.113Z,66.63
2022-10-13T11:05:32.888Z,67.75
2022-10-13T11:08:00.130Z,65.81
2022-10-13T11:10:26.414Z,66.87
2022-10-13T11:13:19.347Z,66.69
2022-10-13T11:15:46.413Z,65.03
2022-10-13T11:19:10.299Z,66.22
2022-10-13T11:22:21.163Z,64.53
2022-10-13T11:25:01.206Z,64.33
2022-10-13T11:27:40.028Z,63.21
2022-10-13T11:30:04.751Z,64.67
2022-10-13T11:32:56.367Z,63.68
2022-10-13T11:35:25.319Z,62.42
2022-10-13T11:38:09.241Z,64.14
2022-10-13T11:40:40.987Z,62.91
2022-10-13T11:43:22.476Z,64.28
2022-10-13T11:46:28.371Z,62.09
2022-10-13T11:49:43.955Z,63.59
2022-10-13T11:52:32.158Z,63.72
2022-10-13T11:55:03.163Z,62.55
2022-10-13T11:57:32.799Z,63.90
2022-10-13T11:59:58.690Z,64.17
2022-10-13T12:02:37.560Z,63.64
2022-10-13T12:05:05.119Z,64.43
2022-10-13T12:07:37.674Z,62.34
2022-10-13T12:10:01.700Z,63.18
2022-10-13T12:12:27.759Z,63.38
2022-10-13T12:14:53.296Z,62.72
2022-10-13T12:17:25.566Z,62.80
2022-10-13T12:19:49.591Z,60.91
2022-10-13T12:22:14.874Z,61.39
2022-10-13T12:24:38.740Z,60.34
2022-10-13T12:27:12.988Z,60.80
2022-10-13T12:29:41.780Z,59.58
2022-10-13T12:32:18.221Z,61.67
2022-10-13T12:34:41.808Z,58.97
2022-10-13T12:37:16.391Z,60.01
2022-10-13T12:39:40.727Z,59.40
2022-10-13T12:42:08.111Z,60.42
2022-10-13T12:44:35.012Z,59.69
2022-10-13T12:47:02.316Z,60.34
2022-10-13T12:49:29.041Z,60.15
2022-10-13T12:51:55.790Z,60.83
2022-10-13T12:54:24.007Z,62.17
2022-10-13T12:56:50.215Z,60.76
2022-10-13T12:59:18.866Z,60.80
2022-10-13T13:01:44.935Z,61.52
2022-10-13T13:04:32.098Z,61.86
2022-10-13T13:06:58.615Z,60.70
2022-10-13T13:09:26.923Z,61.89
2022-10-13T13:12:30.415Z,60.51
2022-10-13T13:14:55.986Z,61.54
2022-10-13T13:17:52.810Z,61.86
2022-10-13T13:20:26.328Z,60.00
2022-10-13T13:22:50.758Z,58.96
2022-10-13T13:25:14.486Z,60.81
2022-10-13T13:27:41.036Z,60.80
2022-10-13T13:30:05.167Z,59.87
2022-10-13T13:32:30.992Z,59.94
2022-10-13T13:34:54.859Z,59.49
2022-10-13T13:37:31.040Z,58.72
2022-10-13T13:39:55.079Z,58.87
2022-10-13T13:42:18.851Z,59.70
2022-10-13T13:44:44.451Z,59.59
2022-10-13T13:47:17.442Z,59.71
2022-10-13T13:49:42.324Z,59.61
2022-10-13T13:52:06.456Z,59.44
2022-10-13T13:54:31.407Z,59.21
2022-10-13T13:56:58.793Z,59.95
2022-10-13T13:59:23.327Z,59.87
2022-10-13T14:01:49.589Z,58.11
2022-10-13T14:04:18.667Z,58.71
2022-10-13T14:06:42.252Z,58.61
2022-10-13T14:09:06.409Z,58.05
2022-10-13T14:11:31.335Z,57.80
2022-10-13T14:13:54.947Z,56.36
2022-10-13T14:16:23.991Z,59.04
2022-10-13T14:18:48.003Z,57.46
2022-10-13T14:21:11.579Z,56.98
2022-10-13T14:23:35.163Z,57.29
2022-10-13T14:25:58.652Z,57.63
2022-10-13T14:28:23.788Z,57.48
2022-10-13T14:30:47.316Z,58.18
2022-10-13T14:33:11.231Z,57.87
2022-10-13T14:35:34.767Z,59.13
2022-10-13T14:38:00.860Z,57.65
2022-10-13T14:40:24.547Z,58.09
2022-10-13T14:42:48.121Z,59.02
2022-10-13T14:45:15.765Z,58.63
2022-10-13T14:47:39.326Z,58.20
2022-10-13T14:50:03.301Z,57.88
2022-10-13T14:52:26.895Z,58.01
2022-10-13T14:54:50.689Z,58.53
2022-10-13T14:57:16.469Z,59.25
2022-10-13T14:59:39.978Z,60.43
2022-10-13T15:02:04.995Z,58.26
2022-10-13T15:04:29.448Z,59.92
2022-10-13T15:06:54.202Z,59.24
2022-10-13T15:09:17.956Z,59.96
2022-10-13T15:11:41.580Z,58.23
2022-10-13T15:14:05.758Z,60.75
2022-10-13T15:16:33.345Z,60.53
2022-10-13T15:18:58.315Z,60.61
2022-10-13T15:21:22.346Z,58.00
2022-10-13T15:23:46.739Z,60.38
2022-10-13T15:26:13.175Z,60.97
2022-10-13T15:28:40.017Z,61.46
2022-10-13T15:31:07.529Z,61.20
2022-10-13T15:33:31.108Z,62.35
2022-10-13T15:35:56.370Z,62.49
2022-10-13T15:38:21.867Z,63.68
2022-10-13T15:40:45.816Z,63.72
2022-10-13T15:43:09.434Z,64.37
2022-10-13T15:45:33.144Z,64.97
2022-10-13T15:47:57.710Z,65.35
2022-10-13T15:50:21.366Z,65.86
2022-10-13T15:52:46.632Z,65.75
2022-10-13T15:55:12.075Z,66.11
2022-10-13T15:57:35.586Z,66.34
2022-10-13T15:59:59.207Z,66.93
2022-10-13T16:02:23.583Z,67.05
2022-10-13T16:04:47.438Z,67.97
2022-10-13T16:07:10.975Z,68.63
2022-10-13T16:09:35.988Z,68.58
2022-10-13T16:11:59.517Z,68.82
2022-10-13T16:14:23.198Z,69.58
2022-10-13T16:16:46.775Z,69.87
2022-10-13T16:19:10.331Z,69.51
2022-10-13T16:21:33.972Z,70.07
2022-10-13T16:24:01.371Z,70.36
2022-10-13T16:26:26.279Z,70.69
2022-10-13T16:28:49.963Z,70.71
2022-10-13T16:31:15.728Z,71.49
2022-10-13T16:33:39.902Z,71.97
2022-10-13T16:36:04.596Z,71.99
2022-10-13T16:38:28.344Z,72.18
2022-10-13T16:40:51.835Z,72.08
2022-10-13T16:43:16.928Z,72.55
2022-10-13T16:46:00.053Z,72.93
2022-10-13T16:48:24.104Z,73.49
2022-10-13T16:50:47.813Z,72.92
2022-10-13T16:53:11.517Z,73.57
2022-10-13T16:55:35.167Z,73.83
2022-10-13T16:57:58.723Z,74.66
2022-10-13T17:00:24.002Z,73.82
2022-10-13T17:02:47.757Z,73.98
2022-10-13T17:05:11.480Z,75.08
2022-10-13T17:07:35.213Z,74.81
2022-10-13T17:09:58.827Z,74.77
2022-10-13T17:12:22.519Z,75.51
2022-10-13T17:14:46.012Z,75.44
2022-10-13T17:17:11.395Z,76.05
2022-10-13T17:19:36.087Z,75.39
2022-10-13T17:21:59.909Z,76.09
2022-10-13T17:24:23.591Z,76.04
2022-10-13T17:26:47.219Z,77.81
2022-10-13T17:29:10.767Z,78.08
2022-10-13T17:31:34.480Z,77.54
2022-10-13T17:34:00.718Z,77.14
2022-10-13T17:36:27.202Z,76.45
2022-10-13T17:38:51.644Z,76.76
2022-10-13T17:41:15.832Z,77.46
2022-10-13T17:43:45.454Z,76.54
2022-10-13T17:46:35.138Z,77.36
2022-10-13T17:48:58.395Z,76.99
2022-10-13T17:51:22.224Z,77.67
2022-10-13T17:53:46.704Z,77.75
2022-10-13T17:56:15.018Z,78.02
2022-10-13T17:58:39.584Z,77.29
2022-10-13T18:01:13.320Z,77.03
2022-10-13T18:03:39.127Z,77.54
2022-10-13T18:06:04.592Z,78.14
2022-10-13T18:08:28.191Z,78.02
2022-10-13T18:11:08.456Z,78.44
2022-10-13T18:13:32.422Z,78.35
2022-10-13T18:15:56.059Z,78.58
2022-10-13T18:18:19.679Z,78.13
2022-10-13T18:20:43.220Z,78.03
2022-10-13T18:23:08.242Z,78.89
2022-10-13T18:25:36.847Z,78.66
2022-10-13T18:28:00.474Z,78.14
2022-10-13T18:30:24.034Z,78.55
2022-10-13T18:32:47.641Z,79.48
2022-10-13T18:35:11.435Z,79.54
2022-10-13T18:37:35.085Z,79.22
2022-10-13T18:40:00.086Z,79.35
2022-10-13T18:42:23.779Z,79.45
2022-10-13T18:44:47.348Z,79.22
2022-10-13T18:47:10.911Z,79.04
2022-10-13T18:49:34.563Z,79.29
2022-10-13T18:51:59.468Z,79.83
2022-10-13T18:54:23.043Z,79.38
2022-10-13T18:56:48.134Z,79.39
2022-10-13T18:59:12.767Z,79.75
2022-10-13T19:01:39.029Z,80.09
2022-10-13T19:04:02.728Z,79.87
2022-10-13T19:06:28.219Z,79.37
2022-10-13T19:08:51.823Z,79.45
2022-10-13T19:11:17.952Z,78.85
2022-10-13T19:13:43.135Z,79.97
2022-10-13T19:16:08.170Z,80.37
2022-10-13T19:18:31.708Z,80.94
2022-10-13T19:20:55.375Z,80.59
2022-10-13T19:23:19.073Z,81.08
2022-10-13T19:25:43.610Z,82.09
2022-10-13T19:28:07.664Z,81.74
2022-10-13T19:30:32.622Z,80.67
2022-10-13T19:32:56.143Z,81.11
2022-10-13T19:35:19.874Z,80.87
2022-10-13T19:37:43.488Z,80.81
2022-10-13T19:40:09.735Z,81.35
2022-10-13T19:42:33.819Z,81.56
2022-10-13T19:44:58.361Z,81.10
2022-10-13T19:47:23.540Z,80.99
2022-10-13T19:49:47.374Z,81.49
2022-10-13T19:52:10.960Z,81.21
2022-10-13T19:54:37.162Z,81.15
2022-10-13T19:57:00.752Z,81.45
2022-10-13T19:59:24.307Z,80.87
2022-10-13T20:01:48.037Z,80.84
2022-10-13T20:04:14.250Z,81.03
2022-10-13T20:06:40.318Z,81.23
2022-10-13T20:09:04.645Z,81.15
2022-10-13T20:11:28.595Z,80.49
2022-10-13T20:13:52.869Z,80.50
2022-10-13T20:16:18.743Z,80.27
2022-10-13T20:18:42.736Z,80.73
2022-10-13T20:21:10.059Z,80.49
2022-10-13T20:23:34.564Z,80.15
2022-10-13T20:25:58.091Z,80.96
2022-10-13T20:28:25.123Z,80.52
2022-10-13T20:30:48.751Z,81.65
2022-10-13T20:33:12.815Z,80.98
2022-10-13T20:35:36.354Z,80.36
2022-10-13T20:38:01.319Z,80.10
2022-10-13T20:40:25.083Z,80.48
2022-10-13T20:42:52.046Z,81.49
2022-10-13T20:45:17.206Z,80.77
2022-10-13T20:47:40.912Z,81.67
2022-10-13T20:50:08.476Z,81.14
2022-10-13T20:52:32.964Z,80.65
2022-10-13T20:54:57.856Z,81.38
2022-10-13T20:57:22.326Z,81.64
2022-10-13T20:59:47.148Z,81.02
2022-10-13T21:02:14.112Z,80.91
2022-10-13T21:04:37.651Z,81.56
2022-10-13T21:07:01.183Z,82.01
2022-10-13T21:09:24.806Z,82.91
2022-10-13T21:11:49.863Z,82.73
2022-10-13T21:14:13.438Z,81.33
2022-10-13T21:16:37.674Z,80.93
2022-10-13T21:19:05.844Z,81.00
2022-10-13T21:21:32.896Z,81.62
2022-10-13T21:23:59.058Z,82.21
2022-10-13T21:26:23.808Z,81.94
2022-10-13T21:28:49.001Z,81.79
2022-10-13T21:31:15.607Z,82.35
2022-10-13T21:33:41.327Z,81.40
2022-10-13T21:36:08.395Z,81.69
2022-10-13T21:38:31.934Z,82.17
2022-10-13T21:40:55.559Z,82.54
2022-10-13T21:43:19.070Z,82.28
2022-10-13T21:45:44.027Z,82.47
2022-10-13T21:48:08.224Z,81.99
2022-10-13T21:50:32.127Z,81.96
2022-10-13T21:52:55.630Z,81.92
2022-10-13T21:55:22.313Z,81.47
2022-10-13T21:57:47.247Z,81.89
2022-10-13T22:00:12.503Z,82.56
2022-10-13T22:02:37.575Z,82.12
2022-10-13T22:05:01.157Z,82.58
2022-10-13T22:07:24.710Z,81.75
2022-10-13T22:09:48.327Z,82.49
2022-10-13T22:12:11.875Z,83.04
2022-10-13T22:14:35.445Z,82.52
2022-10-13T22:16:58.992Z,83.15
2022-10-13T22:19:24.355Z,82.86
2022-10-13T22:21:49.922Z,82.67
2022-10-13T22:24:16.375Z,83.70
2022-10-13T22:26:42.214Z,82.95
2022-10-13T22:29:08.000Z,81.58
2022-10-13T22:31:33.296Z,82.61
2022-10-13T22:34:03.320Z,82.55
2022-10-13T22:36:30.842Z,83.25
2022-10-13T22:38:57.634Z,82.21
2022-10-13T22:41:22.325Z,82.15
2022-10-13T22:43:47.914Z,82.01
2022-10-13T22:46:12.314Z,81.62
2022-10-13T22:48:40.585Z,82.63
2022-10-13T22:51:06.060Z,82.34
2022-10-13T22:53:31.445Z,82.06
2022-10-13T22:55:55.015Z,82.19
2022-10-13T22:58:18.567Z,82.30
2022-10-13T23:00:43.063Z,82.45
2022-10-13T23:03:07.617Z,82.25
2022-10-13T23:05:31.319Z,82.50
2022-10-13T23:07:55.079Z,82.07
2022-10-13T23:10:20.118Z,82.28
2022-10-13T23:12:43.646Z,82.57
2022-10-13T23:15:09.115Z,83.99
2022-10-13T23:17:32.676Z,86.28
2022-10-13T23:19:56.331Z,87.17
2022-10-13T23:22:19.876Z,87.90
2022-10-13T23:24:43.629Z,87.42
2022-10-13T23:27:08.536Z,85.87
2022-10-13T23:29:32.103Z,84.57
2022-10-13T23:31:55.644Z,83.54
2022-10-13T23:34:19.279Z,82.76
2022-10-13T23:36:42.787Z,82.28
2022-10-13T23:39:08.087Z,83.05
2022-10-13T23:41:32.369Z,83.21
2022-10-13T23:43:57.643Z,82.71
2022-10-13T23:46:21.558Z,81.96
2022-10-13T23:48:45.199Z,82.14
2022-10-13T23:51:10.746Z,81.59
2022-10-13T23:53:36.579Z,82.49
2022-10-13T23:56:03.031Z,81.67
2022-10-13T23:58:26.879Z,82.10
